Time;durP1;ratioP1;P1;durP2;ratioP2;P2;SDS_P1;SDS_P2;PMS_P1;PMS_P2;Temp;Humidity;BMP_temperature;BMP_pressure;BME280_temperature;BME280_humidity;BME280_pressure;Samples;Min_cycle;Max_cycle;Signal;HPM_P1;HPM_P2
2023/06/11 00:02:01;;;;;;;;;14.67;12.67;;;;;;;;5062955;28;45518;-82
2023/06/11 00:04:27;;;;;;;;;8.33;8.33;;;;;;;;5054835;28;45942;-84
2023/06/11 00:06:53;;;;;;;;;2.00;1.67;;;;;;;;5052577;28;46203;-83
2023/06/11 00:09:19;;;;;;;;;10.33;8.00;;;;;;;;5050886;28;46463;-81
2023/06/11 00:11:44;;;;;;;;;6.67;6.67;;;;;;;;5048440;28;45695;-81
2023/06/11 00:14:10;;;;;;;;;6.67;6.33;;;;;;;;5048870;28;46760;-83
2023/06/11 00:16:36;;;;;;;;;9.00;9.00;;;;;;;;5054639;28;45692;-82
2023/06/11 00:19:02;;;;;;;;;8.33;8.33;;;;;;;;5054661;28;47311;-83
2023/06/11 00:21:28;;;;;;;;;6.67;6.67;;;;;;;;5053970;28;45914;-82
2023/06/11 00:23:54;;;;;;;;;6.67;6.67;;;;;;;;5054905;28;45851;-82
2023/06/11 00:26:19;;;;;;;;;9.33;9.33;;;;;;;;5059788;28;46848;-82
2023/06/11 00:28:45;;;;;;;;;9.33;8.33;;;;;;;;5069909;27;46190;-82
2023/06/11 00:31:10;;;;;;;;;9.33;9.33;;;;;;;;5056169;28;45684;-84
2023/06/11 00:33:35;;;;;;;;;9.67;8.00;;;;;;;;5037736;28;45639;-82
2023/06/11 00:36:01;;;;;;;;;11.00;8.00;;;;;;;;5054951;28;47174;-83
2023/06/11 00:38:26;;;;;;;;;8.00;8.00;;;;;;;;5057541;28;46319;-83
2023/06/11 00:40:51;;;;;;;;;7.67;7.00;;;;;;;;5057348;28;45417;-82
2023/06/11 00:43:23;;;;;;;;;8.67;8.67;;;;;;;;5058024;28;45673;-81
2023/06/11 00:45:53;;;;;;;;;11.33;9.67;;;;;;;;5057126;28;45799;-82
2023/06/11 00:48:22;;;;;;;;;9.33;8.67;;;;;;;;5056452;28;46127;-83
2023/06/11 00:50:48;;;;;;;;;10.00;8.33;;;;;;;;5053733;28;45710;-84
2023/06/11 00:53:14;;;;;;;;;11.00;9.33;;;;;;;;5053933;28;45598;-83
2023/06/11 00:55:40;;;;;;;;;7.33;6.00;;;;;;;;5056612;28;45853;-83
2023/06/11 00:58:13;;;;;;;;;7.67;7.67;;;;;;;;5055666;28;46353;-85
2023/06/11 01:00:40;;;;;;;;;9.33;9.33;;;;;;;;5054517;28;45575;-83
2023/06/11 01:03:08;;;;;;;;;9.67;9.67;;;;;;;;5050707;28;45950;-84
2023/06/11 01:05:43;;;;;;;;;8.67;8.67;;;;;;;;5051817;28;45718;-82
2023/06/11 01:08:17;;;;;;;;;6.67;6.67;;;;;;;;5053806;28;46091;-82
2023/06/11 01:10:43;;;;;;;;;8.33;8.33;;;;;;;;5052707;28;45442;-82
2023/06/11 01:13:09;;;;;;;;;10.33;10.33;;;;;;;;5066753;28;45868;-81
2023/06/11 01:15:34;;;;;;;;;9.00;9.00;;;;;;;;5053198;28;45771;-82
2023/06/11 01:18:18;;;;;;;;;16.67;11.00;;;;;;;;5052234;28;48675;-80
2023/06/11 01:20:49;;;;;;;;;10.00;10.00;;;;;;;;5061107;28;45787;-82
2023/06/11 01:23:20;;;;;;;;;9.33;9.33;;;;;;;;5056452;27;45742;-81
2023/06/11 01:26:01;;;;;;;;;10.67;8.67;;;;;;;;5053778;28;46161;-81
2023/06/11 01:28:31;;;;;;;;;7.33;7.33;;;;;;;;5053493;28;47132;-81
2023/06/11 01:31:00;;;;;;;;;11.33;9.33;;;;;;;;5056530;28;45872;-83
2023/06/11 01:33:26;;;;;;;;;8.00;8.00;;;;;;;;5060480;28;45789;-79
2023/06/11 01:35:57;;;;;;;;;7.33;7.33;;;;;;;;5054979;28;45493;-81
2023/06/11 01:38:23;;;;;;;;;7.33;7.33;;;;;;;;5065416;28;45777;-81
2023/06/11 01:40:48;;;;;;;;;8.33;6.00;;;;;;;;5054171;28;45701;-82
2023/06/11 01:43:13;;;;;;;;;9.00;9.00;;;;;;;;5054483;28;45731;-82
2023/06/11 01:45:38;;;;;;;;;9.67;8.67;;;;;;;;5054451;28;45538;-81
2023/06/11 01:48:04;;;;;;;;;9.67;7.33;;;;;;;;5052783;28;45833;-82
2023/06/11 01:50:30;;;;;;;;;11.00;9.67;;;;;;;;5054950;28;45348;-82
2023/06/11 01:52:55;;;;;;;;;7.67;7.67;;;;;;;;5056223;28;45698;-83
2023/06/11 01:55:20;;;;;;;;;11.00;8.33;;;;;;;;5056326;28;45803;-82
2023/06/11 01:57:46;;;;;;;;;13.00;12.00;;;;;;;;5057824;28;45611;-82
2023/06/11 02:00:12;;;;;;;;;10.67;8.33;;;;;;;;5058326;28;45412;-82
2023/06/11 02:02:38;;;;;;;;;8.67;7.67;;;;;;;;5055712;28;45820;-83
2023/06/11 02:05:03;;;;;;;;;13.67;12.67;;;;;;;;5059249;28;45841;-81
2023/06/11 02:07:28;;;;;;;;;9.00;8.00;;;;;;;;5057126;28;46365;-84
2023/06/11 02:09:54;;;;;;;;;8.67;6.67;;;;;;;;5054801;28;45612;-83
2023/06/11 02:12:19;;;;;;;;;8.67;7.33;;;;;;;;5053635;28;45784;-73
2023/06/11 02:14:44;;;;;;;;;10.00;9.00;;;;;;;;5050593;28;45442;-75
2023/06/11 02:17:10;;;;;;;;;9.00;9.00;;;;;;;;5050749;28;45760;-73
2023/06/11 02:19:35;;;;;;;;;15.67;15.67;;;;;;;;5048749;28;45408;-74
2023/06/11 02:22:00;;;;;;;;;12.33;9.33;;;;;;;;5050509;28;45399;-75
2023/06/11 02:24:26;;;;;;;;;13.67;10.33;;;;;;;;5050193;28;45926;-74
2023/06/11 02:26:51;;;;;;;;;8.67;7.00;;;;;;;;5049518;28;47379;-73
2023/06/11 02:29:16;;;;;;;;;11.00;9.67;;;;;;;;5059211;28;45469;-74
2023/06/11 02:31:41;;;;;;;;;14.67;9.67;;;;;;;;5045622;28;45786;-75
2023/06/11 02:34:07;;;;;;;;;10.00;8.67;;;;;;;;5043428;28;46049;-72
2023/06/11 02:36:32;;;;;;;;;10.67;8.67;;;;;;;;5050895;28;46477;-74
2023/06/11 02:38:57;;;;;;;;;7.33;7.33;;;;;;;;5050809;28;45472;-74
2023/06/11 02:41:22;;;;;;;;;8.67;7.67;;;;;;;;5051148;28;45639;-73
2023/06/11 02:43:48;;;;;;;;;9.67;9.33;;;;;;;;5047074;28;45813;-73
2023/06/11 02:46:13;;;;;;;;;9.33;9.33;;;;;;;;5050438;28;45778;-73
2023/06/11 02:48:38;;;;;;;;;10.67;9.67;;;;;;;;5050912;28;45565;-73
2023/06/11 02:51:03;;;;;;;;;8.00;8.00;;;;;;;;5049676;28;45454;-74
2023/06/11 02:53:29;;;;;;;;;8.00;8.00;;;;;;;;5050231;28;45432;-76
2023/06/11 02:55:54;;;;;;;;;11.67;11.00;;;;;;;;5050935;28;45355;-74
2023/06/11 02:58:20;;;;;;;;;10.67;9.67;;;;;;;;5050917;28;45401;-74
2023/06/11 03:00:45;;;;;;;;;12.33;9.67;;;;;;;;5050902;28;45567;-73
2023/06/11 03:03:10;;;;;;;;;8.00;8.00;;;;;;;;5051009;28;45618;-74
2023/06/11 03:05:35;;;;;;;;;10.67;9.33;;;;;;;;5048867;28;45417;-73
2023/06/11 03:08:00;;;;;;;;;8.67;8.67;;;;;;;;5059674;28;45622;-74
2023/06/11 03:10:27;;;;;;;;;13.67;12.67;;;;;;;;5049310;28;45362;-73
2023/06/11 03:12:53;;;;;;;;;9.33;9.33;;;;;;;;5050472;28;45737;-73
2023/06/11 03:15:18;;;;;;;;;20.33;14.33;;;;;;;;5049280;28;46300;-74
2023/06/11 03:17:44;;;;;;;;;10.33;10.33;;;;;;;;5050738;28;46344;-73
2023/06/11 03:20:09;;;;;;;;;13.00;11.67;;;;;;;;5053807;28;46096;-74
2023/06/11 03:22:35;;;;;;;;;13.67;12.33;;;;;;;;5057675;28;45700;-75
2023/06/11 03:25:00;;;;;;;;;14.33;13.00;;;;;;;;5050782;28;47236;-75
2023/06/11 03:27:25;;;;;;;;;19.67;14.67;;;;;;;;5049985;28;45343;-73
2023/06/11 03:29:50;;;;;;;;;13.33;11.67;;;;;;;;5049633;28;45297;-74
2023/06/11 03:32:16;;;;;;;;;11.67;11.00;;;;;;;;5049417;28;47623;-75
2023/06/11 03:34:42;;;;;;;;;14.00;9.67;;;;;;;;5052926;28;46228;-75
2023/06/11 03:37:08;;;;;;;;;9.00;9.00;;;;;;;;5048902;28;45809;-73
2023/06/11 03:39:33;;;;;;;;;15.33;10.67;;;;;;;;5050965;28;45790;-75
2023/06/11 03:41:58;;;;;;;;;12.33;12.00;;;;;;;;5048471;28;47375;-74
2023/06/11 03:44:23;;;;;;;;;11.00;10.67;;;;;;;;5050205;28;45814;-74
2023/06/11 03:46:49;;;;;;;;;12.67;9.67;;;;;;;;5049970;28;45449;-74
2023/06/11 03:49:14;;;;;;;;;15.33;14.00;;;;;;;;5045493;28;45798;-73
2023/06/11 03:51:39;;;;;;;;;9.67;9.67;;;;;;;;5054218;28;45813;-74
2023/06/11 03:54:04;;;;;;;;;10.33;9.67;;;;;;;;5054113;28;45771;-74
2023/06/11 03:56:30;;;;;;;;;13.00;10.00;;;;;;;;5050120;28;45485;-75
2023/06/11 03:58:55;;;;;;;;;11.67;10.00;;;;;;;;5048979;28;45634;-74
2023/06/11 04:01:20;;;;;;;;;14.67;11.67;;;;;;;;5048701;28;45645;-74
2023/06/11 04:03:46;;;;;;;;;13.25;11.00;;;;;;;;5050143;28;45981;-75
2023/06/11 04:06:11;;;;;;;;;11.67;9.67;;;;;;;;5049413;28;45526;-73
2023/06/11 04:08:36;;;;;;;;;13.33;9.67;;;;;;;;5048474;28;45754;-75
2023/06/11 04:11:01;;;;;;;;;15.67;13.67;;;;;;;;5051583;28;45845;-76
2023/06/11 04:13:27;;;;;;;;;11.33;11.33;;;;;;;;5046237;28;47453;-74
2023/06/11 04:15:52;;;;;;;;;13.00;13.00;;;;;;;;5048711;28;45959;-76
2023/06/11 04:18:17;;;;;;;;;16.67;15.67;;;;;;;;5050102;28;45683;-75
2023/06/11 04:20:43;;;;;;;;;16.00;14.00;;;;;;;;5041774;28;45918;-73
2023/06/11 04:23:08;;;;;;;;;10.33;10.33;;;;;;;;5048116;28;45709;-73
2023/06/11 04:25:36;;;;;;;;;12.67;12.67;;;;;;;;5043879;28;45355;-73
2023/06/11 04:28:01;;;;;;;;;13.00;13.00;;;;;;;;5041894;28;45732;-74
2023/06/11 04:30:26;;;;;;;;;15.00;12.00;;;;;;;;5038535;28;46060;-74
2023/06/11 04:32:54;;;;;;;;;12.33;12.33;;;;;;;;5044901;28;45864;-75
2023/06/11 04:35:21;;;;;;;;;16.33;16.33;;;;;;;;5056516;28;45762;-75
2023/06/11 04:37:47;;;;;;;;;17.00;15.33;;;;;;;;5057701;27;45425;-75
2023/06/11 04:40:13;;;;;;;;;18.33;16.67;;;;;;;;5052685;28;45907;-73
2023/06/11 04:42:41;;;;;;;;;15.33;13.33;;;;;;;;5052020;28;45477;-74
2023/06/11 04:45:10;;;;;;;;;14.67;14.67;;;;;;;;5050788;28;45853;-74
2023/06/11 04:47:36;;;;;;;;;14.33;14.00;;;;;;;;5054560;28;45603;-74
2023/06/11 04:50:04;;;;;;;;;15.67;14.00;;;;;;;;5058864;28;45497;-74
2023/06/11 04:52:32;;;;;;;;;16.33;16.00;;;;;;;;5052069;28;45741;-75
2023/06/11 04:54:58;;;;;;;;;16.00;16.00;;;;;;;;5053591;28;45785;-75
2023/06/11 04:57:24;;;;;;;;;14.33;14.33;;;;;;;;5053213;28;45808;-74
2023/06/11 04:59:50;;;;;;;;;17.67;15.00;;;;;;;;5052263;28;45799;-73
2023/06/11 05:02:16;;;;;;;;;16.33;15.67;;;;;;;;5052592;28;46123;-74
2023/06/11 05:04:41;;;;;;;;;14.00;13.67;;;;;;;;5053160;28;45473;-72
2023/06/11 05:07:07;;;;;;;;;17.33;15.33;;;;;;;;5047780;28;46671;-74
2023/06/11 05:09:34;;;;;;;;;16.33;14.67;;;;;;;;5053156;28;45774;-74
2023/06/11 05:11:59;;;;;;;;;16.67;13.67;;;;;;;;5050735;28;46065;-74
2023/06/11 05:14:24;;;;;;;;;14.67;12.67;;;;;;;;5051245;28;45352;-73
2023/06/11 05:16:53;;;;;;;;;17.00;15.33;;;;;;;;5052891;28;45720;-73
2023/06/11 05:19:18;;;;;;;;;14.00;12.33;;;;;;;;5053085;28;45856;-75
2023/06/11 05:21:43;;;;;;;;;15.33;14.00;;;;;;;;5063136;28;46434;-75
2023/06/11 05:24:17;;;;;;;;;13.67;13.67;;;;;;;;5050443;28;45848;-76
2023/06/11 05:26:42;;;;;;;;;14.67;14.67;;;;;;;;5052627;28;45800;-73
2023/06/11 05:29:07;;;;;;;;;16.67;13.33;;;;;;;;5050920;28;45510;-74
2023/06/11 05:31:35;;;;;;;;;15.00;12.00;;;;;;;;5053368;28;45492;-73
2023/06/11 05:34:01;;;;;;;;;13.67;11.67;;;;;;;;5052829;28;45834;-74
2023/06/11 05:36:27;;;;;;;;;19.67;16.33;;;;;;;;5051283;28;45360;-74
2023/06/11 05:38:52;;;;;;;;;18.67;14.67;;;;;;;;5052644;28;45538;-75
2023/06/11 05:41:18;;;;;;;;;16.33;15.00;;;;;;;;5047881;28;47340;-75
2023/06/11 05:43:43;;;;;;;;;17.33;14.00;;;;;;;;5052876;28;45429;-73
2023/06/11 05:46:08;;;;;;;;;14.00;14.00;;;;;;;;5050005;28;45988;-73
2023/06/11 05:48:33;;;;;;;;;16.00;16.00;;;;;;;;5051329;28;46536;-72
2023/06/11 05:50:58;;;;;;;;;13.33;13.33;;;;;;;;5052047;28;45720;-72
2023/06/11 05:53:24;;;;;;;;;14.67;14.67;;;;;;;;5062352;28;45816;-75
2023/06/11 05:55:49;;;;;;;;;23.50;18.50;;;;;;;;5052048;28;45474;-73
2023/06/11 05:58:14;;;;;;;;;19.33;17.33;;;;;;;;5052327;28;46062;-74
2023/06/11 06:00:42;;;;;;;;;22.00;20.00;;;;;;;;5051119;28;45632;-72
2023/06/11 06:03:08;;;;;;;;;21.67;18.67;;;;;;;;5059471;28;45412;-74
2023/06/11 06:05:33;;;;;;;;;26.33;23.67;;;;;;;;5060535;28;45481;-74
2023/06/11 06:07:59;;;;;;;;;22.67;21.33;;;;;;;;5055333;28;45794;-74
2023/06/11 06:10:24;;;;;;;;;20.67;17.33;;;;;;;;5051779;28;45690;-75
2023/06/11 06:12:49;;;;;;;;;24.33;21.67;;;;;;;;5056454;28;45571;-74
2023/06/11 06:15:15;;;;;;;;;17.00;14.67;;;;;;;;5050551;28;45785;-73
2023/06/11 06:17:40;;;;;;;;;17.33;17.33;;;;;;;;5041481;28;45986;-74
2023/06/11 06:20:06;;;;;;;;;20.00;19.67;;;;;;;;5041419;28;46069;-75
2023/06/11 06:22:31;;;;;;;;;15.00;11.33;;;;;;;;5039539;28;45891;-72
2023/06/11 06:24:56;;;;;;;;;22.67;18.33;;;;;;;;5061244;27;45687;-74
2023/06/11 06:27:21;;;;;;;;;15.67;15.67;;;;;;;;5057513;28;45951;-73
2023/06/11 06:29:47;;;;;;;;;19.33;17.67;;;;;;;;5046756;28;47052;-79
2023/06/11 06:32:12;;;;;;;;;16.33;15.67;;;;;;;;5048582;28;45878;-75
2023/06/11 06:34:38;;;;;;;;;16.67;16.00;;;;;;;;5050228;27;45578;-80
2023/06/11 06:37:03;;;;;;;;;23.00;21.33;;;;;;;;5051470;28;45745;-74
2023/06/11 06:39:28;;;;;;;;;22.00;19.00;;;;;;;;5044564;28;45577;-75
2023/06/11 06:41:54;;;;;;;;;19.67;18.67;;;;;;;;5039230;28;45753;-74
2023/06/11 06:44:22;;;;;;;;;18.00;16.33;;;;;;;;5050930;28;45899;-74
2023/06/11 06:46:48;;;;;;;;;16.33;14.67;;;;;;;;5039816;28;45759;-75
2023/06/11 06:49:14;;;;;;;;;16.67;15.67;;;;;;;;5041613;28;46098;-73
2023/06/11 06:51:39;;;;;;;;;23.00;16.67;;;;;;;;5042011;28;45924;-74
2023/06/11 06:54:04;;;;;;;;;21.00;16.00;;;;;;;;5044821;28;46777;-73
2023/06/11 06:56:30;;;;;;;;;16.67;16.67;;;;;;;;5041722;28;46791;-72
2023/06/11 06:58:55;;;;;;;;;17.00;13.67;;;;;;;;5040087;28;45991;-76
2023/06/11 07:01:20;;;;;;;;;21.33;18.67;;;;;;;;5038146;28;45942;-75
2023/06/11 07:03:45;;;;;;;;;19.33;16.33;;;;;;;;5038487;28;46087;-74
2023/06/11 07:06:11;;;;;;;;;22.00;17.33;;;;;;;;5043990;28;45835;-76
2023/06/11 07:08:38;;;;;;;;;20.33;19.00;;;;;;;;5043875;28;45826;-76
2023/06/11 07:11:03;;;;;;;;;22.67;22.33;;;;;;;;5036735;28;45793;-75
2023/06/11 07:13:28;;;;;;;;;20.67;20.67;;;;;;;;5037195;28;45497;-73
2023/06/11 07:15:53;;;;;;;;;20.33;19.33;;;;;;;;5046951;28;46867;-75
2023/06/11 07:18:19;;;;;;;;;17.67;17.67;;;;;;;;5035495;28;46008;-73
2023/06/11 07:20:44;;;;;;;;;16.67;16.00;;;;;;;;5042902;28;46003;-74
2023/06/11 07:23:10;;;;;;;;;25.33;22.33;;;;;;;;5043249;28;46091;-74
2023/06/11 07:25:37;;;;;;;;;15.67;14.33;;;;;;;;5045532;28;46066;-73
2023/06/11 07:28:03;;;;;;;;;22.67;21.67;;;;;;;;5044309;28;46080;-74
2023/06/11 07:30:29;;;;;;;;;23.67;19.33;;;;;;;;5044717;28;45761;-73
2023/06/11 07:32:55;;;;;;;;;20.00;18.00;;;;;;;;5050109;28;45470;-76
2023/06/11 07:35:20;;;;;;;;;19.33;18.67;;;;;;;;5047089;28;46102;-75
2023/06/11 07:37:46;;;;;;;;;21.33;19.00;;;;;;;;5047494;28;46469;-77
2023/06/11 07:40:12;;;;;;;;;21.33;18.67;;;;;;;;5041519;28;45685;-77
2023/06/11 07:42:37;;;;;;;;;16.33;16.33;;;;;;;;5049606;28;45756;-79
2023/06/11 07:45:03;;;;;;;;;17.00;17.00;;;;;;;;5049575;27;45709;-76
2023/06/11 07:47:28;;;;;;;;;18.33;16.67;;;;;;;;5057845;28;46625;-74
2023/06/11 07:49:53;;;;;;;;;20.67;20.67;;;;;;;;5049597;28;45889;-76
2023/06/11 07:52:18;;;;;;;;;23.33;23.33;;;;;;;;5049235;28;46356;-77
2023/06/11 07:54:44;;;;;;;;;23.67;22.00;;;;;;;;5050959;28;47410;-77
2023/06/11 07:57:09;;;;;;;;;22.33;19.67;;;;;;;;5049524;28;45519;-77
2023/06/11 07:59:36;;;;;;;;;19.67;17.67;;;;;;;;5052070;28;46009;-76
2023/06/11 08:02:05;;;;;;;;;19.00;18.00;;;;;;;;5050308;28;45468;-77
2023/06/11 08:04:31;;;;;;;;;14.67;14.33;;;;;;;;5050822;28;45165;-77
2023/06/11 08:06:57;;;;;;;;;15.00;14.67;;;;;;;;5046885;28;46975;-76
2023/06/11 08:09:22;;;;;;;;;16.33;15.33;;;;;;;;5056088;28;45922;-74
2023/06/11 08:11:48;;;;;;;;;18.00;16.67;;;;;;;;5064711;28;45563;-76
2023/06/11 08:14:13;;;;;;;;;14.00;14.00;;;;;;;;5061071;28;46968;-76
2023/06/11 08:16:39;;;;;;;;;12.33;12.33;;;;;;;;5054299;28;45520;-76
2023/06/11 08:19:04;;;;;;;;;21.67;20.00;;;;;;;;5059417;28;45564;-77
2023/06/11 08:21:29;;;;;;;;;18.33;17.33;;;;;;;;5058665;28;45931;-78
2023/06/11 08:23:55;;;;;;;;;12.00;10.67;;;;;;;;5062221;28;45876;-76
2023/06/11 08:26:21;;;;;;;;;18.00;16.67;;;;;;;;5061922;27;45456;-76
2023/06/11 08:28:47;;;;;;;;;20.67;20.67;;;;;;;;5062850;28;45555;-78
2023/06/11 08:31:12;;;;;;;;;16.00;12.00;;;;;;;;5056089;28;46323;-76
2023/06/11 08:33:37;;;;;;;;;14.00;14.00;;;;;;;;5059395;28;45611;-77
2023/06/11 08:36:03;;;;;;;;;14.67;14.00;;;;;;;;5056915;27;45477;-75
2023/06/11 08:38:28;;;;;;;;;15.67;14.33;;;;;;;;5057560;28;45727;-75
2023/06/11 08:40:54;;;;;;;;;15.00;13.00;;;;;;;;5056047;28;46050;-76
2023/06/11 08:43:19;;;;;;;;;13.33;13.33;;;;;;;;5058238;28;45915;-77
2023/06/11 08:45:45;;;;;;;;;11.67;11.67;;;;;;;;5056910;28;45873;-78
2023/06/11 08:48:11;;;;;;;;;15.00;13.00;;;;;;;;5059680;27;45476;-79
2023/06/11 08:50:37;;;;;;;;;14.67;13.00;;;;;;;;5059332;28;45562;-77
2023/06/11 08:53:03;;;;;;;;;15.00;15.00;;;;;;;;5059944;28;46000;-76
2023/06/11 08:55:31;;;;;;;;;15.67;12.33;;;;;;;;5063658;28;45525;-77
2023/06/11 08:57:56;;;;;;;;;16.33;13.00;;;;;;;;5063222;28;45964;-79
2023/06/11 09:00:25;;;;;;;;;18.67;18.00;;;;;;;;5066000;27;45383;-81
2023/06/11 09:02:51;;;;;;;;;14.33;12.67;;;;;;;;5063288;28;45471;-78
2023/06/11 09:05:16;;;;;;;;;12.67;11.67;;;;;;;;5052254;28;47125;-81
2023/06/11 09:07:51;;;;;;;;;13.00;11.33;;;;;;;;5057881;28;46149;-78
2023/06/11 09:10:17;;;;;;;;;14.67;14.33;;;;;;;;5056945;28;45563;-79
2023/06/11 09:12:42;;;;;;;;;13.33;13.00;;;;;;;;5063676;28;46049;-78
2023/06/11 09:15:09;;;;;;;;;11.00;10.00;;;;;;;;5057593;28;47300;-80
2023/06/11 09:17:35;;;;;;;;;12.33;12.33;;;;;;;;5051782;28;45935;-78
2023/06/11 09:20:06;;;;;;;;;12.33;12.33;;;;;;;;5054073;28;45945;-78
2023/06/11 09:22:31;;;;;;;;;15.00;13.67;;;;;;;;5056284;27;45771;-80
2023/06/11 09:24:56;;;;;;;;;16.00;15.33;;;;;;;;5061391;27;45989;-80
2023/06/11 09:27:25;;;;;;;;;13.33;13.33;;;;;;;;5057950;27;45795;-79
2023/06/11 09:29:50;;;;;;;;;18.00;16.67;;;;;;;;5053482;28;45395;-80
2023/06/11 09:32:16;;;;;;;;;17.33;15.67;;;;;;;;5058662;28;47135;-82
2023/06/11 09:34:41;;;;;;;;;16.00;14.67;;;;;;;;5054853;28;46035;-81
2023/06/11 09:37:10;;;;;;;;;13.67;13.67;;;;;;;;5057915;27;45489;-79
2023/06/11 09:39:36;;;;;;;;;19.67;18.67;;;;;;;;5051076;28;45846;-79
2023/06/11 09:42:02;;;;;;;;;24.33;21.67;;;;;;;;5056672;27;45740;-80
2023/06/11 09:44:34;;;;;;;;;21.00;20.00;;;;;;;;5056062;28;45850;-84
2023/06/11 09:46:59;;;;;;;;;26.67;22.00;;;;;;;;5053006;28;45729;-83
2023/06/11 09:49:26;;;;;;;;;26.33;20.33;;;;;;;;5058878;27;45716;-80
2023/06/11 09:51:51;;;;;;;;;25.67;24.67;;;;;;;;5055003;28;45533;-85
2023/06/11 09:54:18;;;;;;;;;21.67;21.67;;;;;;;;5049621;27;46106;-80
2023/06/11 09:56:43;;;;;;;;;22.00;20.33;;;;;;;;5056050;28;45456;-82
2023/06/11 09:59:11;;;;;;;;;26.00;23.67;;;;;;;;5050080;28;45560;-81
2023/06/11 10:01:37;;;;;;;;;22.67;20.67;;;;;;;;5049043;28;45552;-81
2023/06/11 10:04:02;;;;;;;;;25.33;20.33;;;;;;;;5048276;28;45892;-82
2023/06/11 10:06:36;;;;;;;;;26.33;23.67;;;;;;;;5046656;28;45544;-83
2023/06/11 10:09:10;;;;;;;;;19.67;19.33;;;;;;;;5057028;27;45575;-84
2023/06/11 10:11:38;;;;;;;;;24.67;24.67;;;;;;;;5056915;28;45768;-81
2023/06/11 10:14:05;;;;;;;;;24.67;24.00;;;;;;;;5057685;28;45501;-79
2023/06/11 10:16:54;;;;;;;;;24.00;21.00;;;;;;;;5052329;28;45662;-81
2023/06/11 10:19:51;;;;;;;;;27.67;23.33;;;;;;;;5051936;28;45816;-85
2023/06/11 10:22:33;;;;;;;;;25.67;21.33;;;;;;;;5056637;28;45544;-84
2023/06/11 10:25:00;;;;;;;;;22.00;21.00;;;;;;;;5059524;28;45702;-82
2023/06/11 10:27:39;;;;;;;;;26.67;22.33;;;;;;;;5053171;28;45738;-83
2023/06/11 10:30:08;;;;;;;;;28.00;24.33;;;;;;;;5059655;28;45632;-84
2023/06/11 10:32:58;;;;;;;;;23.00;21.33;;;;;;;;5056142;28;46917;-84
2023/06/11 10:35:49;;;;;;;;;28.33;23.00;;;;;;;;5062264;28;45638;-83
2023/06/11 10:38:49;;;;;;;;;23.33;20.33;;;;;;;;5061006;27;45438;-81
2023/06/11 10:41:55;;;;;;;;;22.00;22.00;;;;;;;;5014859;28;45921;-83
2023/06/11 10:44:31;;;;;;;;;21.00;21.00;;;;;;;;4945649;28;46346;-82
2023/06/11 10:47:00;;;;;;;;;21.67;21.00;;;;;;;;4976999;28;47047;-83
2023/06/11 10:49:39;;;;;;;;;25.33;23.33;;;;;;;;5057288;27;45453;-84
2023/06/11 10:52:08;;;;;;;;;29.00;26.00;;;;;;;;5043817;28;45751;-83
2023/06/11 10:54:37;;;;;;;;;28.00;20.67;;;;;;;;5050967;28;45553;-80
2023/06/11 10:57:03;;;;;;;;;24.33;24.33;;;;;;;;5050895;28;47143;-85
2023/06/11 11:02:32;;;;;;;;;30.00;28.67;;;;;;;;5032840;22;45830;-76
2023/06/11 11:04:57;;;;;;;;;29.33;26.33;;;;;;;;5027735;28;45775;-78
2023/06/11 11:07:33;;;;;;;;;29.33;26.67;;;;;;;;5029639;28;45813;-78
2023/06/11 11:09:58;;;;;;;;;30.33;28.33;;;;;;;;5023605;28;45775;-79
2023/06/11 11:12:24;;;;;;;;;28.00;27.00;;;;;;;;5018350;28;45397;-77
2023/06/11 11:14:53;;;;;;;;;30.67;28.67;;;;;;;;5017053;28;45619;-78
2023/06/11 11:17:18;;;;;;;;;27.33;27.33;;;;;;;;5027990;28;45838;-80
2023/06/11 11:19:44;;;;;;;;;27.33;27.00;;;;;;;;5038902;28;45893;-73
2023/06/11 11:22:11;;;;;;;;;33.33;30.67;;;;;;;;5030045;28;45763;-75
2023/06/11 11:24:37;;;;;;;;;30.33;25.67;;;;;;;;5024256;28;46009;-74
2023/06/11 11:27:02;;;;;;;;;37.00;33.33;;;;;;;;5036793;28;45479;-72
2023/06/11 11:29:27;;;;;;;;;55.00;45.00;;;;;;;;5035610;28;45794;-74
2023/06/11 11:31:53;;;;;;;;;43.33;33.67;;;;;;;;5041805;28;46303;-73
2023/06/11 11:34:19;;;;;;;;;64.67;50.00;;;;;;;;5027403;28;45819;-74
2023/06/11 11:36:45;;;;;;;;;30.33;29.33;;;;;;;;5027214;28;47295;-73
2023/06/11 11:39:11;;;;;;;;;32.33;31.00;;;;;;;;5016181;28;45409;-73
2023/06/11 11:41:49;;;;;;;;;28.67;28.67;;;;;;;;5029534;28;45581;-75
2023/06/11 11:44:15;;;;;;;;;26.00;24.00;;;;;;;;5031903;28;46306;-74
2023/06/11 11:46:40;;;;;;;;;29.67;25.67;;;;;;;;5038406;28;45921;-75
2023/06/11 11:49:08;;;;;;;;;27.67;24.00;;;;;;;;5019294;28;45616;-76
2023/06/11 11:51:37;;;;;;;;;29.00;24.00;;;;;;;;5016886;28;45931;-75
2023/06/11 11:54:03;;;;;;;;;23.67;23.67;;;;;;;;5034025;28;45717;-72
2023/06/11 11:56:32;;;;;;;;;29.33;24.67;;;;;;;;5034274;28;46270;-76
2023/06/11 11:58:57;;;;;;;;;24.67;22.33;;;;;;;;5031573;28;45441;-74
2023/06/11 12:01:27;;;;;;;;;26.00;22.33;;;;;;;;5036658;28;45421;-75
2023/06/11 12:04:02;;;;;;;;;24.33;22.00;;;;;;;;5033811;28;46096;-74
2023/06/11 12:06:27;;;;;;;;;24.33;23.00;;;;;;;;5017058;28;47620;-75
2023/06/11 12:08:52;;;;;;;;;21.00;17.33;;;;;;;;5032897;28;45716;-79
2023/06/11 12:11:18;;;;;;;;;24.00;20.33;;;;;;;;5019050;28;45829;-75
2023/06/11 12:13:43;;;;;;;;;26.67;24.33;;;;;;;;5032762;28;45727;-75
2023/06/11 12:16:09;;;;;;;;;21.00;19.67;;;;;;;;5025689;28;45851;-75
2023/06/11 12:18:34;;;;;;;;;25.33;25.33;;;;;;;;5018475;28;45678;-74
2023/06/11 12:20:59;;;;;;;;;27.00;25.00;;;;;;;;5033469;28;45706;-76
2023/06/11 12:23:24;;;;;;;;;24.00;22.00;;;;;;;;5015336;28;45811;-74
2023/06/11 12:25:50;;;;;;;;;24.33;24.33;;;;;;;;5037836;28;45844;-74
2023/06/11 12:28:18;;;;;;;;;23.00;22.67;;;;;;;;5035777;28;45433;-75
2023/06/11 12:30:44;;;;;;;;;46.67;38.67;;;;;;;;5034934;28;47004;-76
2023/06/11 12:33:10;;;;;;;;;26.00;26.00;;;;;;;;5039424;28;45616;-74
2023/06/11 12:35:38;;;;;;;;;27.33;25.00;;;;;;;;5039093;28;45603;-74
2023/06/11 12:38:03;;;;;;;;;25.33;24.00;;;;;;;;5016990;28;45615;-74
2023/06/11 12:40:30;;;;;;;;;28.67;28.67;;;;;;;;5033677;28;45434;-77
2023/06/11 12:42:59;;;;;;;;;30.67;27.67;;;;;;;;5027909;28;45585;-75
2023/06/11 12:45:28;;;;;;;;;27.67;25.67;;;;;;;;5028344;28;45554;-75
2023/06/11 12:47:55;;;;;;;;;28.00;27.00;;;;;;;;5032371;28;45370;-76
2023/06/11 12:50:20;;;;;;;;;33.33;30.67;;;;;;;;5034840;28;45758;-78
2023/06/11 12:52:45;;;;;;;;;30.67;27.67;;;;;;;;5034512;28;45890;-81
2023/06/11 12:55:11;;;;;;;;;29.67;28.33;;;;;;;;5033189;28;45793;-76
2023/06/11 12:57:36;;;;;;;;;37.00;32.33;;;;;;;;5036781;28;45713;-78
2023/06/11 13:00:08;;;;;;;;;40.67;32.00;;;;;;;;5018513;28;45466;-77
2023/06/11 13:02:34;;;;;;;;;42.00;35.67;;;;;;;;5031238;28;45464;-75
2023/06/11 13:04:59;;;;;;;;;42.00;37.00;;;;;;;;5035537;28;46125;-75
2023/06/11 13:07:25;;;;;;;;;46.00;37.67;;;;;;;;5032830;28;45487;-73
2023/06/11 13:09:56;;;;;;;;;41.00;32.67;;;;;;;;5015477;28;45479;-72
2023/06/11 13:12:24;;;;;;;;;44.33;35.67;;;;;;;;5019869;28;46901;-77
2023/06/11 13:14:50;;;;;;;;;42.33;37.00;;;;;;;;5019158;28;47084;-75
2023/06/11 13:17:15;;;;;;;;;49.00;38.00;;;;;;;;5027903;28;45733;-73
2023/06/11 13:19:40;;;;;;;;;37.67;35.00;;;;;;;;5020282;28;45825;-74
2023/06/11 13:22:07;;;;;;;;;48.67;40.67;;;;;;;;5040348;28;45659;-76
2023/06/11 13:24:33;;;;;;;;;52.00;43.67;;;;;;;;5030670;28;45481;-75
2023/06/11 13:26:58;;;;;;;;;48.33;37.67;;;;;;;;5035904;28;45862;-76
2023/06/11 13:29:24;;;;;;;;;41.33;36.33;;;;;;;;5021111;28;45705;-74
2023/06/11 13:31:52;;;;;;;;;50.33;39.67;;;;;;;;5039700;28;46080;-78
2023/06/11 13:34:17;;;;;;;;;50.00;37.33;;;;;;;;5017882;28;45686;-74
2023/06/11 13:36:43;;;;;;;;;50.00;39.67;;;;;;;;5023495;28;45761;-70
2023/06/11 13:39:08;;;;;;;;;56.00;44.00;;;;;;;;5017540;28;46690;-74
2023/06/11 13:41:34;;;;;;;;;51.67;38.67;;;;;;;;5039521;28;45397;-73
2023/06/11 13:43:59;;;;;;;;;54.00;40.67;;;;;;;;5023802;28;46146;-74
2023/06/11 13:46:25;;;;;;;;;53.33;42.00;;;;;;;;5032814;28;45789;-74
2023/06/11 13:48:53;;;;;;;;;56.67;44.00;;;;;;;;5016174;28;45557;-75
2023/06/11 13:51:42;;;;;;;;;49.33;42.00;;;;;;;;5023900;28;45714;-83
2023/06/11 13:54:50;;;;;;;;;50.67;41.67;;;;;;;;5031887;28;46595;-76
2023/06/11 13:57:14;;;;;;;;;49.00;41.33;;;;;;;;5026156;28;45738;-75
2023/06/11 13:59:40;;;;;;;;;52.00;42.33;;;;;;;;5029069;28;45832;-73
2023/06/11 14:02:05;;;;;;;;;50.33;40.33;;;;;;;;5004095;28;45865;-74
2023/06/11 14:04:31;;;;;;;;;49.33;39.33;;;;;;;;5020087;28;46900;-75
2023/06/11 14:06:57;;;;;;;;;42.33;35.67;;;;;;;;5019914;28;45816;-76
2023/06/11 14:09:23;;;;;;;;;44.67;36.67;;;;;;;;5036370;28;45681;-77
2023/06/11 14:11:48;;;;;;;;;62.00;46.67;;;;;;;;5037989;28;45473;-75
2023/06/11 14:14:13;;;;;;;;;49.67;41.33;;;;;;;;5037698;28;46163;-76
2023/06/11 14:16:39;;;;;;;;;39.67;33.67;;;;;;;;5038834;28;45608;-76
2023/06/11 14:19:06;;;;;;;;;38.00;34.67;;;;;;;;5029608;28;45633;-76
2023/06/11 14:21:35;;;;;;;;;42.00;36.00;;;;;;;;5038228;28;45824;-76
2023/06/11 14:24:01;;;;;;;;;50.33;42.33;;;;;;;;5029925;28;46327;-79